sensor_id;sensor_type;location;lat;lon;timestamp;P1;durP1;ratioP1;P2;durP2;ratioP2
7316;SDS011;3699;51.462;6.696;2022-08-06T00:01:54;4.93;;;2.60;;
7316;SDS011;3699;51.462;6.696;2022-08-06T00:04:21;4.80;;;2.50;;
7316;SDS011;3699;51.462;6.696;2022-08-06T00:06:48;4.37;;;2.40;;
7316;SDS011;3699;51.462;6.696;2022-08-06T00:09:15;3.10;;;2.40;;
7316;SDS011;3699;51.462;6.696;2022-08-06T00:11:43;4.27;;;2.57;;
7316;SDS011;3699;51.462;6.696;2022-08-06T00:14:09;2.90;;;2.40;;
7316;SDS011;3699;51.462;6.696;2022-08-06T00:16:36;6.63;;;2.60;;
7316;SDS011;3699;51.462;6.696;2022-08-06T00:19:03;3.30;;;2.73;;
7316;SDS011;3699;51.462;6.696;2022-08-06T00:21:30;4.63;;;2.73;;
7316;SDS011;3699;51.462;6.696;2022-08-06T00:23:57;4.87;;;2.93;;
7316;SDS011;3699;51.462;6.696;2022-08-06T00:26:24;4.80;;;2.50;;
7316;SDS011;3699;51.462;6.696;2022-08-06T00:28:53;2.83;;;2.30;;
7316;SDS011;3699;51.462;6.696;2022-08-06T00:31:19;3.70;;;2.50;;
7316;SDS011;3699;51.462;6.696;2022-08-06T00:33:46;6.53;;;2.77;;
7316;SDS011;3699;51.462;6.696;2022-08-06T00:36:13;6.23;;;2.50;;
7316;SDS011;3699;51.462;6.696;2022-08-06T00:38:39;2.77;;;2.47;;
7316;SDS011;3699;51.462;6.696;2022-08-06T00:41:06;5.27;;;2.90;;
7316;SDS011;3699;51.462;6.696;2022-08-06T00:43:33;7.17;;;3.23;;
7316;SDS011;3699;51.462;6.696;2022-08-06T00:46:01;4.33;;;2.60;;
7316;SDS011;3699;51.462;6.696;2022-08-06T00:48:28;6.23;;;2.93;;
7316;SDS011;3699;51.462;6.696;2022-08-06T00:50:54;5.63;;;3.20;;
7316;SDS011;3699;51.462;6.696;2022-08-06T00:53:21;8.43;;;3.27;;
7316;SDS011;3699;51.462;6.696;2022-08-06T00:55:48;4.33;;;2.97;;
7316;SDS011;3699;51.462;6.696;2022-08-06T00:58:15;9.40;;;3.10;;
7316;SDS011;3699;51.462;6.696;2022-08-06T01:00:41;8.53;;;3.60;;
7316;SDS011;3699;51.462;6.696;2022-08-06T01:03:09;6.40;;;2.77;;
7316;SDS011;3699;51.462;6.696;2022-08-06T01:05:37;10.40;;;2.97;;
7316;SDS011;3699;51.462;6.696;2022-08-06T01:08:03;4.73;;;2.80;;
7316;SDS011;3699;51.462;6.696;2022-08-06T01:10:30;2.90;;;2.37;;
7316;SDS011;3699;51.462;6.696;2022-08-06T01:12:57;6.07;;;3.00;;
7316;SDS011;3699;51.462;6.696;2022-08-06T01:15:24;6.00;;;2.87;;
7316;SDS011;3699;51.462;6.696;2022-08-06T01:17:53;4.63;;;2.60;;
7316;SDS011;3699;51.462;6.696;2022-08-06T01:20:29;3.17;;;2.53;;
7316;SDS011;3699;51.462;6.696;2022-08-06T01:23:11;3.60;;;2.83;;
7316;SDS011;3699;51.462;6.696;2022-08-06T01:28:58;9.40;;;2.90;;
7316;SDS011;3699;51.462;6.696;2022-08-06T01:31:31;6.53;;;3.33;;
7316;SDS011;3699;51.462;6.696;2022-08-06T01:34:02;4.87;;;2.87;;
7316;SDS011;3699;51.462;6.696;2022-08-06T01:36:34;6.53;;;2.60;;
7316;SDS011;3699;51.462;6.696;2022-08-06T01:39:12;6.97;;;3.17;;
7316;SDS011;3699;51.462;6.696;2022-08-06T01:41:43;3.87;;;2.60;;
7316;SDS011;3699;51.462;6.696;2022-08-06T01:44:14;3.13;;;2.83;;
7316;SDS011;3699;51.462;6.696;2022-08-06T01:46:44;4.27;;;2.93;;
7316;SDS011;3699;51.462;6.696;2022-08-06T01:49:12;6.80;;;3.23;;
7316;SDS011;3699;51.462;6.696;2022-08-06T01:51:42;8.80;;;3.53;;
7316;SDS011;3699;51.462;6.696;2022-08-06T01:54:11;7.93;;;2.90;;
7316;SDS011;3699;51.462;6.696;2022-08-06T01:56:40;9.03;;;3.63;;
7316;SDS011;3699;51.462;6.696;2022-08-06T01:59:10;5.57;;;2.97;;
7316;SDS011;3699;51.462;6.696;2022-08-06T02:01:42;7.37;;;3.20;;
7316;SDS011;3699;51.462;6.696;2022-08-06T02:04:12;4.53;;;3.40;;
7316;SDS011;3699;51.462;6.696;2022-08-06T02:06:41;4.13;;;3.10;;
7316;SDS011;3699;51.462;6.696;2022-08-06T02:09:13;5.43;;;3.47;;
7316;SDS011;3699;51.462;6.696;2022-08-06T02:11:42;5.57;;;3.87;;
7316;SDS011;3699;51.462;6.696;2022-08-06T02:14:13;8.43;;;3.77;;
7316;SDS011;3699;51.462;6.696;2022-08-06T02:16:42;11.40;;;4.33;;
7316;SDS011;3699;51.462;6.696;2022-08-06T02:19:11;6.43;;;3.73;;
7316;SDS011;3699;51.462;6.696;2022-08-06T02:21:40;5.97;;;3.23;;
7316;SDS011;3699;51.462;6.696;2022-08-06T02:24:09;5.03;;;3.67;;
7316;SDS011;3699;51.462;6.696;2022-08-06T02:26:37;6.60;;;3.20;;
7316;SDS011;3699;51.462;6.696;2022-08-06T02:29:07;9.40;;;3.70;;
7316;SDS011;3699;51.462;6.696;2022-08-06T02:31:37;5.90;;;3.70;;
7316;SDS011;3699;51.462;6.696;2022-08-06T02:34:04;5.03;;;4.00;;
7316;SDS011;3699;51.462;6.696;2022-08-06T02:36:32;6.20;;;3.67;;
7316;SDS011;3699;51.462;6.696;2022-08-06T02:39:06;6.73;;;3.70;;
7316;SDS011;3699;51.462;6.696;2022-08-06T02:41:35;5.47;;;3.87;;
7316;SDS011;3699;51.462;6.696;2022-08-06T02:44:08;7.90;;;4.10;;
7316;SDS011;3699;51.462;6.696;2022-08-06T02:46:43;13.27;;;4.90;;
7316;SDS011;3699;51.462;6.696;2022-08-06T02:49:16;13.83;;;4.47;;
7316;SDS011;3699;51.462;6.696;2022-08-06T02:51:48;8.03;;;5.07;;
7316;SDS011;3699;51.462;6.696;2022-08-06T02:54:21;7.07;;;3.93;;
7316;SDS011;3699;51.462;6.696;2022-08-06T02:56:51;7.57;;;4.93;;
7316;SDS011;3699;51.462;6.696;2022-08-06T02:59:26;6.47;;;4.30;;
7316;SDS011;3699;51.462;6.696;2022-08-06T03:01:59;5.43;;;4.37;;
7316;SDS011;3699;51.462;6.696;2022-08-06T03:04:28;7.33;;;4.23;;
7316;SDS011;3699;51.462;6.696;2022-08-06T03:06:56;7.37;;;4.07;;
7316;SDS011;3699;51.462;6.696;2022-08-06T03:09:25;9.40;;;4.73;;
7316;SDS011;3699;51.462;6.696;2022-08-06T03:11:52;5.37;;;3.97;;
7316;SDS011;3699;51.462;6.696;2022-08-06T03:14:21;7.57;;;4.80;;
7316;SDS011;3699;51.462;6.696;2022-08-06T03:16:50;7.17;;;4.10;;
7316;SDS011;3699;51.462;6.696;2022-08-06T03:19:20;6.00;;;4.50;;
7316;SDS011;3699;51.462;6.696;2022-08-06T03:21:49;9.90;;;4.63;;
7316;SDS011;3699;51.462;6.696;2022-08-06T03:24:17;7.17;;;4.47;;
7316;SDS011;3699;51.462;6.696;2022-08-06T03:26:45;5.43;;;4.27;;
7316;SDS011;3699;51.462;6.696;2022-08-06T03:29:12;6.90;;;4.07;;
7316;SDS011;3699;51.462;6.696;2022-08-06T03:31:40;7.30;;;4.67;;
7316;SDS011;3699;51.462;6.696;2022-08-06T03:34:07;5.47;;;4.17;;
7316;SDS011;3699;51.462;6.696;2022-08-06T03:36:35;5.97;;;4.30;;
7316;SDS011;3699;51.462;6.696;2022-08-06T03:39:03;5.73;;;4.17;;
7316;SDS011;3699;51.462;6.696;2022-08-06T03:41:33;8.57;;;4.70;;
7316;SDS011;3699;51.462;6.696;2022-08-06T03:44:02;8.40;;;4.70;;
7316;SDS011;3699;51.462;6.696;2022-08-06T03:46:30;5.10;;;4.60;;
7316;SDS011;3699;51.462;6.696;2022-08-06T03:49:08;5.87;;;4.67;;
7316;SDS011;3699;51.462;6.696;2022-08-06T03:51:39;5.20;;;4.40;;
7316;SDS011;3699;51.462;6.696;2022-08-06T03:54:08;5.60;;;4.00;;
7316;SDS011;3699;51.462;6.696;2022-08-06T03:56:36;8.07;;;4.23;;
7316;SDS011;3699;51.462;6.696;2022-08-06T03:59:05;4.47;;;4.00;;
7316;SDS011;3699;51.462;6.696;2022-08-06T04:01:36;4.83;;;4.10;;
7316;SDS011;3699;51.462;6.696;2022-08-06T04:04:07;6.07;;;4.10;;
7316;SDS011;3699;51.462;6.696;2022-08-06T04:06:35;8.70;;;5.23;;
7316;SDS011;3699;51.462;6.696;2022-08-06T04:09:03;9.10;;;5.57;;
7316;SDS011;3699;51.462;6.696;2022-08-06T04:11:31;5.80;;;5.20;;
7316;SDS011;3699;51.462;6.696;2022-08-06T04:13:59;7.77;;;4.90;;
7316;SDS011;3699;51.462;6.696;2022-08-06T04:16:26;7.30;;;4.90;;
7316;SDS011;3699;51.462;6.696;2022-08-06T04:18:53;4.90;;;4.43;;
7316;SDS011;3699;51.462;6.696;2022-08-06T04:21:22;8.20;;;4.57;;
7316;SDS011;3699;51.462;6.696;2022-08-06T04:23:50;9.20;;;4.80;;
7316;SDS011;3699;51.462;6.696;2022-08-06T04:26:20;5.63;;;4.40;;
7316;SDS011;3699;51.462;6.696;2022-08-06T04:28:51;8.53;;;4.90;;
7316;SDS011;3699;51.462;6.696;2022-08-06T04:31:19;8.63;;;5.63;;
7316;SDS011;3699;51.462;6.696;2022-08-06T04:33:47;10.63;;;5.07;;
7316;SDS011;3699;51.462;6.696;2022-08-06T04:36:16;10.73;;;4.77;;
7316;SDS011;3699;51.462;6.696;2022-08-06T04:38:44;10.57;;;4.97;;
7316;SDS011;3699;51.462;6.696;2022-08-06T04:41:11;13.50;;;5.13;;
7316;SDS011;3699;51.462;6.696;2022-08-06T04:43:40;5.50;;;4.90;;
7316;SDS011;3699;51.462;6.696;2022-08-06T04:46:07;8.53;;;4.40;;
7316;SDS011;3699;51.462;6.696;2022-08-06T04:48:35;6.97;;;4.80;;
7316;SDS011;3699;51.462;6.696;2022-08-06T04:51:02;11.47;;;4.50;;
7316;SDS011;3699;51.462;6.696;2022-08-06T04:53:34;9.20;;;4.60;;
7316;SDS011;3699;51.462;6.696;2022-08-06T04:56:03;9.27;;;4.53;;
7316;SDS011;3699;51.462;6.696;2022-08-06T04:58:30;9.93;;;4.30;;
7316;SDS011;3699;51.462;6.696;2022-08-06T05:00:58;6.93;;;4.53;;
7316;SDS011;3699;51.462;6.696;2022-08-06T05:03:25;6.13;;;3.97;;
7316;SDS011;3699;51.462;6.696;2022-08-06T05:05:53;8.63;;;4.53;;
7316;SDS011;3699;51.462;6.696;2022-08-06T05:08:25;28.87;;;5.57;;
7316;SDS011;3699;51.462;6.696;2022-08-06T05:10:56;7.37;;;4.67;;
7316;SDS011;3699;51.462;6.696;2022-08-06T05:13:26;9.67;;;4.20;;
7316;SDS011;3699;51.462;6.696;2022-08-06T05:16:02;5.33;;;4.13;;
7316;SDS011;3699;51.462;6.696;2022-08-06T05:18:33;4.93;;;4.47;;
7316;SDS011;3699;51.462;6.696;2022-08-06T05:21:02;8.83;;;4.23;;
7316;SDS011;3699;51.462;6.696;2022-08-06T05:23:32;6.83;;;4.00;;
7316;SDS011;3699;51.462;6.696;2022-08-06T05:26:03;5.93;;;3.90;;
7316;SDS011;3699;51.462;6.696;2022-08-06T05:28:30;4.40;;;3.50;;
7316;SDS011;3699;51.462;6.696;2022-08-06T05:30:57;4.00;;;3.53;;
7316;SDS011;3699;51.462;6.696;2022-08-06T05:33:26;6.13;;;3.50;;
7316;SDS011;3699;51.462;6.696;2022-08-06T05:35:54;10.67;;;3.73;;
7316;SDS011;3699;51.462;6.696;2022-08-06T05:38:21;4.67;;;3.13;;
7316;SDS011;3699;51.462;6.696;2022-08-06T05:40:51;4.17;;;3.17;;
7316;SDS011;3699;51.462;6.696;2022-08-06T05:43:18;9.30;;;2.90;;
7316;SDS011;3699;51.462;6.696;2022-08-06T05:45:46;4.83;;;2.90;;
7316;SDS011;3699;51.462;6.696;2022-08-06T05:48:14;6.20;;;3.10;;
7316;SDS011;3699;51.462;6.696;2022-08-06T05:50:48;5.00;;;2.70;;
7316;SDS011;3699;51.462;6.696;2022-08-06T05:53:27;5.17;;;2.87;;
7316;SDS011;3699;51.462;6.696;2022-08-06T05:56:02;4.17;;;2.40;;
7316;SDS011;3699;51.462;6.696;2022-08-06T05:58:33;7.47;;;2.57;;
7316;SDS011;3699;51.462;6.696;2022-08-06T06:01:04;8.23;;;2.30;;
7316;SDS011;3699;51.462;6.696;2022-08-06T06:03:33;3.93;;;2.50;;
7316;SDS011;3699;51.462;6.696;2022-08-06T06:06:04;4.37;;;2.47;;
7316;SDS011;3699;51.462;6.696;2022-08-06T06:08:31;2.23;;;2.03;;
7316;SDS011;3699;51.462;6.696;2022-08-06T06:10:59;6.47;;;2.67;;
7316;SDS011;3699;51.462;6.696;2022-08-06T06:13:25;3.63;;;2.30;;
7316;SDS011;3699;51.462;6.696;2022-08-06T06:15:55;6.90;;;2.60;;
7316;SDS011;3699;51.462;6.696;2022-08-06T06:18:30;5.23;;;2.40;;
7316;SDS011;3699;51.462;6.696;2022-08-06T06:21:12;4.70;;;2.27;;
7316;SDS011;3699;51.462;6.696;2022-08-06T06:23:46;3.67;;;2.10;;
7316;SDS011;3699;51.462;6.696;2022-08-06T06:26:28;9.03;;;2.30;;
7316;SDS011;3699;51.462;6.696;2022-08-06T06:29:02;3.30;;;2.00;;
7316;SDS011;3699;51.462;6.696;2022-08-06T06:31:35;4.97;;;2.23;;
7316;SDS011;3699;51.462;6.696;2022-08-06T06:34:08;3.23;;;1.80;;
7316;SDS011;3699;51.462;6.696;2022-08-06T06:36:47;4.67;;;2.13;;
7316;SDS011;3699;51.462;6.696;2022-08-06T06:39:21;5.20;;;1.80;;
7316;SDS011;3699;51.462;6.696;2022-08-06T06:41:55;2.57;;;1.47;;
7316;SDS011;3699;51.462;6.696;2022-08-06T06:44:31;2.87;;;1.43;;
7316;SDS011;3699;51.462;6.696;2022-08-06T06:47:03;3.60;;;1.43;;
7316;SDS011;3699;51.462;6.696;2022-08-06T06:49:36;3.73;;;1.60;;
7316;SDS011;3699;51.462;6.696;2022-08-06T06:52:11;3.60;;;1.60;;
7316;SDS011;3699;51.462;6.696;2022-08-06T06:54:43;4.20;;;1.70;;
7316;SDS011;3699;51.462;6.696;2022-08-06T06:57:15;2.97;;;1.70;;
7316;SDS011;3699;51.462;6.696;2022-08-06T06:59:45;2.93;;;1.40;;
7316;SDS011;3699;51.462;6.696;2022-08-06T07:02:18;1.93;;;1.50;;
7316;SDS011;3699;51.462;6.696;2022-08-06T07:04:47;5.67;;;1.80;;
7316;SDS011;3699;51.462;6.696;2022-08-06T07:07:18;1.67;;;1.10;;
7316;SDS011;3699;51.462;6.696;2022-08-06T07:09:48;3.70;;;1.20;;
7316;SDS011;3699;51.462;6.696;2022-08-06T07:12:19;4.27;;;1.63;;
7316;SDS011;3699;51.462;6.696;2022-08-06T07:14:49;1.17;;;1.07;;
7316;SDS011;3699;51.462;6.696;2022-08-06T07:17:18;9.37;;;1.23;;
7316;SDS011;3699;51.462;6.696;2022-08-06T07:19:48;1.70;;;1.10;;
7316;SDS011;3699;51.462;6.696;2022-08-06T07:22:18;1.10;;;1.00;;
7316;SDS011;3699;51.462;6.696;2022-08-06T07:24:46;1.30;;;1.03;;
7316;SDS011;3699;51.462;6.696;2022-08-06T07:27:17;2.57;;;1.10;;
7316;SDS011;3699;51.462;6.696;2022-08-06T07:29:45;1.10;;;0.90;;
7316;SDS011;3699;51.462;6.696;2022-08-06T07:32:13;1.40;;;0.90;;
7316;SDS011;3699;51.462;6.696;2022-08-06T07:34:40;1.03;;;0.90;;
7316;SDS011;3699;51.462;6.696;2022-08-06T07:37:08;5.73;;;1.93;;
7316;SDS011;3699;51.462;6.696;2022-08-06T07:39:38;2.87;;;1.30;;
7316;SDS011;3699;51.462;6.696;2022-08-06T07:42:07;1.20;;;1.13;;
7316;SDS011;3699;51.462;6.696;2022-08-06T07:44:37;1.73;;;1.10;;
7316;SDS011;3699;51.462;6.696;2022-08-06T07:47:08;1.10;;;1.00;;
7316;SDS011;3699;51.462;6.696;2022-08-06T07:49:39;1.57;;;1.30;;
7316;SDS011;3699;51.462;6.696;2022-08-06T07:52:08;6.17;;;1.77;;
7316;SDS011;3699;51.462;6.696;2022-08-06T07:54:40;2.63;;;1.20;;
7316;SDS011;3699;51.462;6.696;2022-08-06T07:57:08;0.90;;;0.90;;
7316;SDS011;3699;51.462;6.696;2022-08-06T07:59:36;3.93;;;1.50;;
7316;SDS011;3699;51.462;6.696;2022-08-06T08:02:03;1.27;;;1.10;;
7316;SDS011;3699;51.462;6.696;2022-08-06T08:04:31;1.63;;;1.10;;
7316;SDS011;3699;51.462;6.696;2022-08-06T08:07:17;2.27;;;0.93;;
7316;SDS011;3699;51.462;6.696;2022-08-06T08:09:45;1.53;;;1.10;;
7316;SDS011;3699;51.462;6.696;2022-08-06T08:12:13;2.17;;;1.27;;
7316;SDS011;3699;51.462;6.696;2022-08-06T08:14:42;1.83;;;1.13;;
7316;SDS011;3699;51.462;6.696;2022-08-06T08:17:10;2.63;;;0.90;;
7316;SDS011;3699;51.462;6.696;2022-08-06T08:19:37;3.33;;;1.07;;
7316;SDS011;3699;51.462;6.696;2022-08-06T08:22:05;2.13;;;1.40;;
7316;SDS011;3699;51.462;6.696;2022-08-06T08:24:34;1.20;;;1.10;;
7316;SDS011;3699;51.462;6.696;2022-08-06T08:27:06;1.77;;;1.53;;
7316;SDS011;3699;51.462;6.696;2022-08-06T08:29:35;3.77;;;1.10;;
7316;SDS011;3699;51.462;6.696;2022-08-06T08:32:03;1.43;;;1.23;;
7316;SDS011;3699;51.462;6.696;2022-08-06T08:34:30;1.37;;;1.00;;
7316;SDS011;3699;51.462;6.696;2022-08-06T08:36:58;2.20;;;1.00;;
7316;SDS011;3699;51.462;6.696;2022-08-06T08:39:24;1.90;;;1.20;;
7316;SDS011;3699;51.462;6.696;2022-08-06T08:41:54;2.83;;;1.27;;
7316;SDS011;3699;51.462;6.696;2022-08-06T08:44:26;1.67;;;1.20;;
7316;SDS011;3699;51.462;6.696;2022-08-06T08:46:55;2.07;;;1.40;;
7316;SDS011;3699;51.462;6.696;2022-08-06T08:49:25;3.60;;;1.77;;
7316;SDS011;3699;51.462;6.696;2022-08-06T08:51:54;3.03;;;1.70;;
7316;SDS011;3699;51.462;6.696;2022-08-06T08:54:24;2.73;;;1.30;;
7316;SDS011;3699;51.462;6.696;2022-08-06T08:56:52;1.20;;;1.10;;
7316;SDS011;3699;51.462;6.696;2022-08-06T08:59:19;1.63;;;1.10;;
7316;SDS011;3699;51.462;6.696;2022-08-06T09:01:48;2.13;;;1.10;;
7316;SDS011;3699;51.462;6.696;2022-08-06T09:04:15;1.00;;;1.00;;
7316;SDS011;3699;51.462;6.696;2022-08-06T09:06:42;2.00;;;1.20;;
7316;SDS011;3699;51.462;6.696;2022-08-06T09:09:09;1.67;;;1.10;;
7316;SDS011;3699;51.462;6.696;2022-08-06T09:11:36;2.47;;;1.13;;
7316;SDS011;3699;51.462;6.696;2022-08-06T09:14:04;1.90;;;1.10;;
7316;SDS011;3699;51.462;6.696;2022-08-06T09:16:32;2.47;;;1.27;;
7316;SDS011;3699;51.462;6.696;2022-08-06T09:19:02;1.10;;;0.97;;
7316;SDS011;3699;51.462;6.696;2022-08-06T09:21:30;3.20;;;1.13;;
7316;SDS011;3699;51.462;6.696;2022-08-06T09:23:58;2.50;;;0.80;;
7316;SDS011;3699;51.462;6.696;2022-08-06T09:26:25;1.77;;;1.30;;
7316;SDS011;3699;51.462;6.696;2022-08-06T09:28:52;1.00;;;0.90;;
7316;SDS011;3699;51.462;6.696;2022-08-06T09:31:20;3.20;;;1.00;;
7316;SDS011;3699;51.462;6.696;2022-08-06T09:33:53;1.07;;;1.00;;
7316;SDS011;3699;51.462;6.696;2022-08-06T09:36:23;1.90;;;0.90;;
7316;SDS011;3699;51.462;6.696;2022-08-06T09:38:51;1.60;;;1.10;;
7316;SDS011;3699;51.462;6.696;2022-08-06T09:41:21;0.93;;;0.90;;
7316;SDS011;3699;51.462;6.696;2022-08-06T09:43:49;1.20;;;1.00;;
7316;SDS011;3699;51.462;6.696;2022-08-06T09:46:17;2.27;;;1.10;;
7316;SDS011;3699;51.462;6.696;2022-08-06T09:48:57;2.40;;;1.10;;
7316;SDS011;3699;51.462;6.696;2022-08-06T09:51:26;0.90;;;0.90;;
7316;SDS011;3699;51.462;6.696;2022-08-06T09:53:55;1.17;;;1.00;;
7316;SDS011;3699;51.462;6.696;2022-08-06T09:56:23;2.80;;;1.00;;
7316;SDS011;3699;51.462;6.696;2022-08-06T09:58:56;0.90;;;0.90;;
7316;SDS011;3699;51.462;6.696;2022-08-06T10:01:24;1.97;;;1.07;;
7316;SDS011;3699;51.462;6.696;2022-08-06T10:03:52;2.33;;;1.00;;
7316;SDS011;3699;51.462;6.696;2022-08-06T10:06:23;1.43;;;1.17;;
7316;SDS011;3699;51.462;6.696;2022-08-06T10:09:04;1.10;;;1.10;;
7316;SDS011;3699;51.462;6.696;2022-08-06T10:11:33;2.60;;;0.90;;
7316;SDS011;3699;51.462;6.696;2022-08-06T10:14:02;1.13;;;1.03;;
7316;SDS011;3699;51.462;6.696;2022-08-06T10:16:29;4.13;;;1.70;;
7316;SDS011;3699;51.462;6.696;2022-08-06T10:18:56;3.63;;;1.77;;
7316;SDS011;3699;51.462;6.696;2022-08-06T10:21:25;2.47;;;1.50;;
7316;SDS011;3699;51.462;6.696;2022-08-06T10:23:58;2.80;;;1.00;;
7316;SDS011;3699;51.462;6.696;2022-08-06T10:26:28;1.00;;;1.00;;
7316;SDS011;3699;51.462;6.696;2022-08-06T10:28:59;1.13;;;1.00;;
7316;SDS011;3699;51.462;6.696;2022-08-06T10:31:28;3.37;;;1.30;;
7316;SDS011;3699;51.462;6.696;2022-08-06T10:33:59;4.43;;;1.10;;
7316;SDS011;3699;51.462;6.696;2022-08-06T10:36:31;1.57;;;1.07;;
7316;SDS011;3699;51.462;6.696;2022-08-06T10:39:03;4.53;;;1.30;;
7316;SDS011;3699;51.462;6.696;2022-08-06T10:41:30;2.07;;;1.10;;
7316;SDS011;3699;51.462;6.696;2022-08-06T10:44:00;1.27;;;1.13;;
7316;SDS011;3699;51.462;6.696;2022-08-06T10:46:27;1.80;;;1.07;;
7316;SDS011;3699;51.462;6.696;2022-08-06T10:48:54;1.37;;;0.93;;
7316;SDS011;3699;51.462;6.696;2022-08-06T10:51:22;1.47;;;0.87;;
7316;SDS011;3699;51.462;6.696;2022-08-06T10:53:50;1.97;;;0.80;;
7316;SDS011;3699;51.462;6.696;2022-08-06T10:56:19;3.40;;;1.30;;
7316;SDS011;3699;51.462;6.696;2022-08-06T10:58:46;9.53;;;1.10;;
7316;SDS011;3699;51.462;6.696;2022-08-06T11:01:16;2.53;;;1.80;;
7316;SDS011;3699;51.462;6.696;2022-08-06T11:04:02;1.50;;;1.00;;
7316;SDS011;3699;51.462;6.696;2022-08-06T11:09:40;1.57;;;1.20;;
7316;SDS011;3699;51.462;6.696;2022-08-06T11:12:34;2.03;;;1.10;;
7316;SDS011;3699;51.462;6.696;2022-08-06T11:15:10;1.87;;;1.17;;
7316;SDS011;3699;51.462;6.696;2022-08-06T11:17:41;0.97;;;0.97;;
7316;SDS011;3699;51.462;6.696;2022-08-06T11:25:53;1.20;;;1.20;;
7316;SDS011;3699;51.462;6.696;2022-08-06T11:31:32;3.43;;;1.67;;
7316;SDS011;3699;51.462;6.696;2022-08-06T11:34:01;2.60;;;1.00;;
7316;SDS011;3699;51.462;6.696;2022-08-06T11:36:42;1.70;;;0.87;;
7316;SDS011;3699;51.462;6.696;2022-08-06T11:39:13;2.50;;;0.80;;
7316;SDS011;3699;51.462;6.696;2022-08-06T11:41:45;3.83;;;1.43;;
7316;SDS011;3699;51.462;6.696;2022-08-06T11:44:22;1.27;;;1.03;;
7316;SDS011;3699;51.462;6.696;2022-08-06T11:47:09;2.97;;;1.67;;
7316;SDS011;3699;51.462;6.696;2022-08-06T11:49:42;2.23;;;1.27;;
7316;SDS011;3699;51.462;6.696;2022-08-06T11:52:37;1.13;;;1.10;;
7316;SDS011;3699;51.462;6.696;2022-08-06T11:55:06;3.07;;;1.70;;
7316;SDS011;3699;51.462;6.696;2022-08-06T11:57:33;3.80;;;1.50;;
7316;SDS011;3699;51.462;6.696;2022-08-06T12:02:48;1.23;;;1.10;;
7316;SDS011;3699;51.462;6.696;2022-08-06T12:08:16;1.10;;;1.00;;
7316;SDS011;3699;51.462;6.696;2022-08-06T12:13:46;1.83;;;1.10;;
7316;SDS011;3699;51.462;6.696;2022-08-06T12:19:06;2.87;;;1.00;;
7316;SDS011;3699;51.462;6.696;2022-08-06T12:21:39;1.93;;;1.20;;
7316;SDS011;3699;51.462;6.696;2022-08-06T12:24:07;1.53;;;1.10;;
7316;SDS011;3699;51.462;6.696;2022-08-06T12:26:34;1.10;;;1.00;;
7316;SDS011;3699;51.462;6.696;2022-08-06T12:29:02;1.07;;;0.83;;
7316;SDS011;3699;51.462;6.696;2022-08-06T12:31:31;1.40;;;0.90;;
7316;SDS011;3699;51.462;6.696;2022-08-06T12:33:59;2.40;;;1.07;;
7316;SDS011;3699;51.462;6.696;2022-08-06T12:36:29;0.87;;;0.80;;
7316;SDS011;3699;51.462;6.696;2022-08-06T12:38:58;1.90;;;1.10;;
7316;SDS011;3699;51.462;6.696;2022-08-06T12:41:33;1.50;;;1.00;;
7316;SDS011;3699;51.462;6.696;2022-08-06T12:44:07;1.30;;;1.20;;
7316;SDS011;3699;51.462;6.696;2022-08-06T12:46:35;2.23;;;1.30;;
7316;SDS011;3699;51.462;6.696;2022-08-06T12:49:02;1.63;;;1.07;;
7316;SDS011;3699;51.462;6.696;2022-08-06T12:51:30;2.50;;;1.10;;
7316;SDS011;3699;51.462;6.696;2022-08-06T12:53:58;2.93;;;1.27;;
7316;SDS011;3699;51.462;6.696;2022-08-06T12:56:26;3.37;;;1.20;;
7316;SDS011;3699;51.462;6.696;2022-08-06T12:58:56;2.07;;;1.27;;
7316;SDS011;3699;51.462;6.696;2022-08-06T13:01:32;1.37;;;1.20;;
7316;SDS011;3699;51.462;6.696;2022-08-06T13:04:01;1.30;;;1.20;;
7316;SDS011;3699;51.462;6.696;2022-08-06T13:06:35;1.57;;;1.30;;
7316;SDS011;3699;51.462;6.696;2022-08-06T13:09:04;1.13;;;1.00;;
7316;SDS011;3699;51.462;6.696;2022-08-06T13:11:32;2.77;;;1.37;;
7316;SDS011;3699;51.462;6.696;2022-08-06T13:14:06;3.10;;;1.80;;
7316;SDS011;3699;51.462;6.696;2022-08-06T13:16:41;3.27;;;1.47;;
7316;SDS011;3699;51.462;6.696;2022-08-06T13:19:10;7.53;;;2.00;;
7316;SDS011;3699;51.462;6.696;2022-08-06T13:21:40;3.27;;;1.50;;
7316;SDS011;3699;51.462;6.696;2022-08-06T13:24:08;2.60;;;1.50;;
7316;SDS011;3699;51.462;6.696;2022-08-06T13:26:46;2.77;;;1.50;;
7316;SDS011;3699;51.462;6.696;2022-08-06T13:29:17;5.03;;;1.93;;
7316;SDS011;3699;51.462;6.696;2022-08-06T13:31:47;4.87;;;1.90;;
7316;SDS011;3699;51.462;6.696;2022-08-06T13:34:24;1.23;;;1.13;;
7316;SDS011;3699;51.462;6.696;2022-08-06T13:36:56;1.30;;;1.20;;
7316;SDS011;3699;51.462;6.696;2022-08-06T13:39:25;6.33;;;1.40;;
7316;SDS011;3699;51.462;6.696;2022-08-06T13:42:02;4.10;;;1.33;;
7316;SDS011;3699;51.462;6.696;2022-08-06T13:44:31;3.03;;;1.20;;
7316;SDS011;3699;51.462;6.696;2022-08-06T13:46:59;4.07;;;1.57;;
7316;SDS011;3699;51.462;6.696;2022-08-06T13:49:26;1.20;;;1.10;;
7316;SDS011;3699;51.462;6.696;2022-08-06T13:51:53;1.47;;;1.20;;
7316;SDS011;3699;51.462;6.696;2022-08-06T13:54:22;2.43;;;1.40;;
7316;SDS011;3699;51.462;6.696;2022-08-06T13:56:50;2.17;;;1.17;;
7316;SDS011;3699;51.462;6.696;2022-08-06T13:59:18;2.30;;;1.57;;
7316;SDS011;3699;51.462;6.696;2022-08-06T14:01:46;3.43;;;1.23;;
7316;SDS011;3699;51.462;6.696;2022-08-06T14:04:13;1.40;;;1.30;;
7316;SDS011;3699;51.462;6.696;2022-08-06T14:06:42;1.80;;;1.23;;
7316;SDS011;3699;51.462;6.696;2022-08-06T14:09:11;3.40;;;1.27;;
7316;SDS011;3699;51.462;6.696;2022-08-06T14:11:38;1.03;;;1.03;;
7316;SDS011;3699;51.462;6.696;2022-08-06T14:14:05;4.07;;;1.90;;
7316;SDS011;3699;51.462;6.696;2022-08-06T14:16:32;5.53;;;2.13;;
7316;SDS011;3699;51.462;6.696;2022-08-06T14:18:58;2.03;;;1.40;;
7316;SDS011;3699;51.462;6.696;2022-08-06T14:21:25;2.57;;;1.00;;
7316;SDS011;3699;51.462;6.696;2022-08-06T14:23:52;3.60;;;1.60;;
7316;SDS011;3699;51.462;6.696;2022-08-06T14:26:20;2.60;;;1.27;;
7316;SDS011;3699;51.462;6.696;2022-08-06T14:28:46;2.80;;;1.70;;
7316;SDS011;3699;51.462;6.696;2022-08-06T14:31:13;1.50;;;1.40;;
7316;SDS011;3699;51.462;6.696;2022-08-06T14:33:40;12.40;;;2.20;;
7316;SDS011;3699;51.462;6.696;2022-08-06T14:36:07;1.47;;;1.20;;
7316;SDS011;3699;51.462;6.696;2022-08-06T14:38:34;1.63;;;1.30;;
7316;SDS011;3699;51.462;6.696;2022-08-06T14:41:01;1.00;;;1.00;;
7316;SDS011;3699;51.462;6.696;2022-08-06T14:43:47;2.27;;;1.43;;
7316;SDS011;3699;51.462;6.696;2022-08-06T14:46:31;1.47;;;1.37;;
7316;SDS011;3699;51.462;6.696;2022-08-06T14:48:58;1.30;;;1.10;;
7316;SDS011;3699;51.462;6.696;2022-08-06T14:51:26;2.17;;;1.53;;
7316;SDS011;3699;51.462;6.696;2022-08-06T14:53:53;4.57;;;1.73;;
7316;SDS011;3699;51.462;6.696;2022-08-06T14:56:20;2.80;;;1.67;;
7316;SDS011;3699;51.462;6.696;2022-08-06T14:58:48;5.10;;;1.63;;
7316;SDS011;3699;51.462;6.696;2022-08-06T15:01:15;1.30;;;1.13;;
7316;SDS011;3699;51.462;6.696;2022-08-06T15:03:42;1.70;;;1.60;;
7316;SDS011;3699;51.462;6.696;2022-08-06T15:06:08;14.93;;;1.60;;
7316;SDS011;3699;51.462;6.696;2022-08-06T15:08:35;2.70;;;1.20;;
7316;SDS011;3699;51.462;6.696;2022-08-06T15:11:03;5.00;;;1.77;;
7316;SDS011;3699;51.462;6.696;2022-08-06T15:13:30;1.73;;;1.47;;
7316;SDS011;3699;51.462;6.696;2022-08-06T15:15:58;3.70;;;1.20;;
7316;SDS011;3699;51.462;6.696;2022-08-06T15:18:25;2.27;;;1.13;;
7316;SDS011;3699;51.462;6.696;2022-08-06T15:20:51;3.73;;;1.40;;
7316;SDS011;3699;51.462;6.696;2022-08-06T15:23:18;2.13;;;1.23;;
7316;SDS011;3699;51.462;6.696;2022-08-06T15:25:45;1.70;;;1.57;;
7316;SDS011;3699;51.462;6.696;2022-08-06T15:28:12;2.77;;;1.40;;
7316;SDS011;3699;51.462;6.696;2022-08-06T15:30:41;1.87;;;1.53;;
7316;SDS011;3699;51.462;6.696;2022-08-06T15:33:09;2.20;;;1.20;;
7316;SDS011;3699;51.462;6.696;2022-08-06T15:35:36;1.27;;;1.10;;
7316;SDS011;3699;51.462;6.696;2022-08-06T15:38:03;1.23;;;1.23;;
7316;SDS011;3699;51.462;6.696;2022-08-06T15:40:29;2.13;;;1.33;;
7316;SDS011;3699;51.462;6.696;2022-08-06T15:42:56;2.50;;;2.30;;
7316;SDS011;3699;51.462;6.696;2022-08-06T15:45:23;2.00;;;1.90;;
7316;SDS011;3699;51.462;6.696;2022-08-06T15:47:50;1.40;;;1.30;;
7316;SDS011;3699;51.462;6.696;2022-08-06T15:50:19;1.70;;;1.33;;
7316;SDS011;3699;51.462;6.696;2022-08-06T15:52:46;2.20;;;1.40;;
7316;SDS011;3699;51.462;6.696;2022-08-06T15:55:12;2.90;;;1.13;;
7316;SDS011;3699;51.462;6.696;2022-08-06T15:57:39;1.57;;;1.10;;